• Join FlightAware (Why Join?)
  • Login
  • US Flag 
11:51PM EDT


 

Airport Tracker/Info


-or-


 

Live Flight TrackerFlight Track Log ✈ N9003S ✈ 28-Apr-2013 ✈ KGON - KHPN

Flight Track Log - Related Links

Times and Time Zones

All times are in EDT time to prevent confusion due to time zone crossing. See the N9003S flight status page for this flight to view local times or setup timezone preferences in your user account.

Time Position Orientation Groundspeed Altitude Reporting Facility
EDT Latitude Longitude Course Direction KTS MPH feet Rate Location/Type
05:44PM 41.3139 -72.0642 242° Southwest 114 131 700  Level Boston Center
05:45PM 41.3017 -72.0947 242° Southwest 128 147 1,800 1,140 Climbing Boston Center
05:46PM 41.3017 -72.1500 270° West 126 145 3,100 840 Climbing Boston Center
05:47PM 41.3019 -72.2081 270° West 150 173 3,700 780 Climbing Boston Center
05:49PM 41.3000 -72.2833 268° West 118 136 5,600 720 Climbing New York TRACON
05:50PM 41.3000 -72.3333 270° West 137 158 6,000 240 Climbing New York TRACON
05:51PM 41.2833 -72.4000 252° West 166 191 6,100 -60 Climbing New York TRACON
05:52PM 41.2833 -72.4667 270° West 177 204 5,900 -60 Descending New York TRACON
05:53PM 41.2667 -72.5333 252° West 173 199 6,000 60 Climbing New York TRACON
05:54PM 41.2500 -72.5833 246° West 170 196 6,100  Climbing New York TRACON
05:55PM 41.2500 -72.6500 270° West 176 203 6,000 -420 Descending New York TRACON
05:56PM 41.2333 -72.7167 252° West 186 214 5,300 -780 Descending New York TRACON
05:57PM 41.2333 -72.7833 270° West 180 207 4,500 -660 Descending New York TRACON
05:58PM 41.2167 -72.8333 246° West 174 200 4,000 -300 Descending New York TRACON
05:59PM 41.2000 -72.9000 252° West 171 197 4,000  Level New York TRACON
06:00PM 41.2000 -72.9500 270° West 169 194 4,000  Level New York TRACON
06:01PM 41.1833 -73.0167 252° West 172 198 4,000  Level New York TRACON
06:02PM 41.1667 -73.0833 252° West 169 194 4,000 -60 Level New York TRACON
06:03PM 41.1667 -73.1333 270° West 172 198 3,900  Descending New York TRACON
06:04PM 41.1667 -73.2000 270° West 169 194 4,000  Climbing New York TRACON
06:05PM 41.1667 -73.2667 270° West 172 198 3,900  Descending New York TRACON
06:06PM 41.1833 -73.3333 288° West 169 194 4,000  Climbing New York TRACON
06:07PM 41.1833 -73.3833 270° West 169 194 4,000  Level New York TRACON
06:08PM 41.1833 -73.4500 270° West 168 193 4,000 -480 Level New York TRACON
06:09PM 41.1833 -73.5167 270° West 177 204 3,100 -480 Descending New York TRACON
06:10PM 41.2000 -73.5667 294° West 159 183 3,100  Level New York TRACON
06:11PM 41.2000 -73.6333 270° West 150 173 3,100 -360 Level New York TRACON
06:12PM 41.2000 -73.6833 270° West 145 167 2,400 -540 Descending New York TRACON
06:13PM 41.2000 -73.7333 270° West 145 167 2,100 -240 Descending New York TRACON
06:14PM 41.2000 -73.7833 270° West 132 152 2,000  Descending New York TRACON
06:15PM 41.1667 -73.7833 180° South 106 122 2,100 -60 Climbing New York TRACON
06:16PM 41.1333 -73.7667 159° South 105 121 1,900 -360 Descending New York TRACON
06:17PM 41.1167 -73.7500 143° Southeast 98 113 1,400 -540 Descending New York TRACON
06:18PM 41.0833 -73.7167 143° Southeast 95 109 900 -540 Descending New York TRACON
06:20PM 41.0667 -73.7000 229° Southwest  Level FlightAware Approximate
06:27PM 41.0669 -73.7076 229° Southwest  Level Estimated
06:28PM 41.0667 -73.7000 229° Southwest  Level FlightAware Approximate